Time;durP1;ratioP1;P1;durP2;ratioP2;P2;SDS_P1;SDS_P2;PMS_P1;PMS_P2;Temp;Humidity;BMP_temperature;BMP_pressure;BME280_temperature;BME280_humidity;BME280_pressure;Samples;Min_cycle;Max_cycle;Signal;HPM_P1;HPM_P2
2023/10/11 00:01:49;;;;;;;3.30;2.35;;;17.80;99.90;;;;;;5118097;27;20204;-74
2023/10/11 00:04:24;;;;;;;2.58;2.00;;;17.80;99.90;;;;;;5120142;27;20663;-74
2023/10/11 00:06:50;;;;;;;4.15;2.63;;;17.70;99.90;;;;;;5083201;27;20657;-73
2023/10/11 00:09:17;;;;;;;4.50;2.72;;;17.70;99.90;;;;;;5078480;28;20224;-74
2023/10/11 00:11:45;;;;;;;3.17;2.22;;;17.70;99.90;;;;;;5082488;28;20247;-73
2023/10/11 00:14:13;;;;;;;3.88;2.28;;;17.70;99.90;;;;;;5079696;28;20698;-74
2023/10/11 00:16:43;;;;;;;3.97;2.40;;;17.60;99.90;;;;;;5084678;28;20685;-74
2023/10/11 00:19:15;;;;;;;4.75;2.60;;;17.60;99.90;;;;;;5083557;28;20197;-75
2023/10/11 00:21:42;;;;;;;5.22;2.83;;;17.60;99.90;;;;;;5084578;28;20343;-73
2023/10/11 00:24:09;;;;;;;5.55;2.40;;;17.50;99.90;;;;;;5079115;28;20571;-74
2023/10/11 00:26:37;;;;;;;5.70;2.50;;;17.50;99.90;;;;;;5082216;28;20672;-74
2023/10/11 00:29:09;;;;;;;3.60;2.47;;;17.50;99.90;;;;;;5084851;28;20219;-74
2023/10/11 00:31:36;;;;;;;7.10;2.45;;;17.50;99.90;;;;;;5082221;28;20220;-74
2023/10/11 00:34:06;;;;;;;4.43;2.20;;;17.50;99.90;;;;;;5081364;28;20649;-73
2023/10/11 00:36:33;;;;;;;4.18;2.25;;;17.50;99.90;;;;;;5085140;28;20214;-74
2023/10/11 00:39:00;;;;;;;4.38;2.47;;;17.50;99.90;;;;;;5079022;28;20192;-76
2023/10/11 00:41:30;;;;;;;4.75;2.70;;;17.50;99.90;;;;;;5078363;28;20266;-73
2023/10/11 00:43:58;;;;;;;3.70;2.63;;;17.50;99.90;;;;;;5072987;28;20194;-74
2023/10/11 00:46:27;;;;;;;5.03;2.17;;;17.50;99.90;;;;;;5089538;28;20181;-74
2023/10/11 00:49:03;;;;;;;4.85;2.00;;;17.50;99.90;;;;;;5104924;28;20197;-75
2023/10/11 00:51:32;;;;;;;2.97;2.20;;;17.40;99.90;;;;;;5103610;28;20270;-75
2023/10/11 00:54:01;;;;;;;4.47;2.20;;;17.40;99.90;;;;;;5084702;28;20807;-75
2023/10/11 00:56:31;;;;;;;6.57;2.80;;;17.40;99.90;;;;;;5079146;28;20190;-74
2023/10/11 00:58:59;;;;;;;4.90;2.08;;;17.40;99.90;;;;;;5081829;28;20193;-74
2023/10/11 01:01:26;;;;;;;4.10;2.53;;;17.30;99.90;;;;;;5083432;28;20214;-74
2023/10/11 01:03:54;;;;;;;4.45;2.30;;;17.30;99.90;;;;;;5096961;28;20271;-75
2023/10/11 01:06:25;;;;;;;3.83;2.10;;;17.30;99.90;;;;;;5101833;28;20320;-74
2023/10/11 01:08:54;;;;;;;4.38;2.67;;;17.20;99.90;;;;;;5078613;28;20228;-74
2023/10/11 01:11:21;;;;;;;6.47;3.10;;;17.10;99.90;;;;;;5082629;28;20190;-74
2023/10/11 01:13:51;;;;;;;3.83;2.58;;;17.10;99.90;;;;;;5083312;28;20190;-74
2023/10/11 01:16:24;;;;;;;4.50;2.22;;;17.10;99.90;;;;;;5079758;28;20202;-74
2023/10/11 01:18:51;;;;;;;5.97;2.40;;;17.10;99.90;;;;;;5080870;28;20203;-74
2023/10/11 01:21:19;;;;;;;3.13;2.55;;;17.00;99.90;;;;;;5085620;28;20233;-73
2023/10/11 01:23:46;;;;;;;4.88;2.50;;;17.00;99.90;;;;;;5082458;28;20277;-74
2023/10/11 01:26:15;;;;;;;4.82;2.70;;;17.00;99.90;;;;;;5084532;28;20215;-72
2023/10/11 01:28:45;;;;;;;2.92;2.30;;;17.00;99.90;;;;;;5087125;28;20209;-75
2023/10/11 01:31:16;;;;;;;7.28;2.65;;;17.00;99.90;;;;;;5086499;28;20300;-73
2023/10/11 01:33:46;;;;;;;4.15;2.63;;;16.90;99.90;;;;;;5082524;28;20275;-74
2023/10/11 01:36:17;;;;;;;2.38;2.17;;;16.90;99.90;;;;;;5087634;28;20205;-73
2023/10/11 01:38:47;;;;;;;5.00;2.50;;;16.90;99.90;;;;;;5081590;28;20205;-74
2023/10/11 01:41:16;;;;;;;4.30;2.78;;;16.90;99.90;;;;;;5083928;28;20340;-73
2023/10/11 01:43:45;;;;;;;2.97;2.63;;;16.90;99.90;;;;;;5084822;28;20230;-74
2023/10/11 01:46:17;;;;;;;4.15;2.47;;;16.90;99.90;;;;;;5083664;28;20198;-75
2023/10/11 01:48:45;;;;;;;5.38;2.40;;;16.80;99.90;;;;;;5081279;28;20215;-74
2023/10/11 01:51:15;;;;;;;4.55;2.33;;;16.80;99.90;;;;;;5086250;28;20875;-74
2023/10/11 01:53:42;;;;;;;5.93;3.13;;;16.90;99.90;;;;;;5085432;28;20206;-74
2023/10/11 01:56:13;;;;;;;5.07;2.85;;;16.90;99.90;;;;;;5083604;28;20193;-74
2023/10/11 01:58:42;;;;;;;5.28;2.40;;;16.90;99.90;;;;;;5084598;28;21870;-74
2023/10/11 02:01:21;;;;;;;4.20;2.72;;;16.90;99.90;;;;;;5081206;28;20698;-74
2023/10/11 02:03:51;;;;;;;3.38;2.40;;;16.90;99.90;;;;;;5084497;28;20205;-74
2023/10/11 02:06:19;;;;;;;4.32;2.47;;;16.80;99.90;;;;;;5084084;28;20197;-74
2023/10/11 02:08:46;;;;;;;4.30;2.90;;;16.80;99.90;;;;;;5079446;28;20599;-74
2023/10/11 02:11:15;;;;;;;5.50;2.55;;;16.80;99.90;;;;;;5079957;28;20283;-73
2023/10/11 02:13:42;;;;;;;5.10;2.90;;;16.80;99.90;;;;;;5078770;28;20281;-74
2023/10/11 02:16:11;;;;;;;4.10;2.63;;;16.80;99.90;;;;;;5079355;28;20251;-74
2023/10/11 02:18:39;;;;;;;4.90;2.65;;;16.80;99.90;;;;;;5080107;28;20208;-74
2023/10/11 02:21:06;;;;;;;4.93;2.60;;;16.70;99.90;;;;;;5079357;28;20309;-73
2023/10/11 02:23:37;;;;;;;7.70;3.03;;;16.70;99.90;;;;;;5082146;28;20922;-75
2023/10/11 02:26:09;;;;;;;4.47;2.47;;;16.70;99.90;;;;;;5081711;28;20242;-74
2023/10/11 02:28:38;;;;;;;3.53;2.63;;;16.70;99.90;;;;;;5087893;28;20697;-74
2023/10/11 02:31:06;;;;;;;3.83;2.60;;;16.70;99.90;;;;;;5079484;28;20215;-74
2023/10/11 02:33:33;;;;;;;4.57;2.65;;;16.70;99.90;;;;;;5081542;28;20209;-74
2023/10/11 02:36:08;;;;;;;5.15;2.67;;;16.60;99.90;;;;;;5077877;28;20248;-73
2023/10/11 02:38:39;;;;;;;5.90;2.67;;;16.60;99.90;;;;;;5085461;28;20205;-74
2023/10/11 02:41:07;;;;;;;6.80;2.50;;;16.70;99.90;;;;;;5089414;28;20312;-73
2023/10/11 02:43:47;;;;;;;4.32;2.45;;;16.60;99.90;;;;;;5095286;28;20204;-74
2023/10/11 02:46:16;;;;;;;4.13;2.58;;;16.60;99.90;;;;;;5095835;28;20210;-74
2023/10/11 02:48:45;;;;;;;3.45;2.65;;;16.60;99.90;;;;;;5097457;28;20201;-74
2023/10/11 02:51:16;;;;;;;6.95;2.83;;;16.50;99.90;;;;;;5087925;28;20275;-75
2023/10/11 02:53:44;;;;;;;5.00;2.63;;;16.50;99.90;;;;;;5089153;28;20198;-74
2023/10/11 02:56:11;;;;;;;5.40;3.03;;;16.50;99.90;;;;;;5095198;28;20194;-74
2023/10/11 02:58:39;;;;;;;4.93;3.00;;;16.50;99.90;;;;;;5092855;28;20197;-74
2023/10/11 03:01:14;;;;;;;4.97;2.85;;;16.40;99.90;;;;;;5084123;28;20222;-75
2023/10/11 03:03:42;;;;;;;5.55;2.65;;;16.40;99.90;;;;;;5082271;28;20209;-73
2023/10/11 03:06:09;;;;;;;4.68;3.10;;;16.40;99.90;;;;;;5114559;28;20190;-75
2023/10/11 03:08:37;;;;;;;4.20;2.58;;;16.30;99.90;;;;;;5087940;28;20192;-74
2023/10/11 03:11:05;;;;;;;3.65;2.20;;;16.30;99.90;;;;;;5082116;28;20304;-75
2023/10/11 03:13:41;;;;;;;3.00;2.53;;;16.30;99.90;;;;;;5080153;28;20223;-74
2023/10/11 03:16:13;;;;;;;5.35;2.38;;;16.30;99.90;;;;;;5079300;28;20205;-73
2023/10/11 03:18:42;;;;;;;5.03;2.58;;;16.30;99.90;;;;;;5084380;28;20250;-75
2023/10/11 03:21:17;;;;;;;4.40;2.70;;;16.30;99.90;;;;;;5081957;28;20271;-74
2023/10/11 03:23:47;;;;;;;7.22;3.35;;;16.30;99.90;;;;;;5081891;28;20239;-74
2023/10/11 03:26:18;;;;;;;3.97;2.63;;;16.30;99.90;;;;;;5079776;28;20208;-74
2023/10/11 03:28:45;;;;;;;5.65;2.90;;;16.30;99.90;;;;;;5080835;28;20201;-74
2023/10/11 03:31:13;;;;;;;4.25;2.60;;;16.30;99.90;;;;;;5077731;28;20274;-73
2023/10/11 03:33:42;;;;;;;4.90;2.60;;;16.20;99.90;;;;;;5079645;28;20243;-74
2023/10/11 03:36:18;;;;;;;3.60;2.20;;;16.20;99.90;;;;;;5085665;28;20210;-74
2023/10/11 03:38:51;;;;;;;4.57;2.55;;;16.20;99.90;;;;;;5078032;28;20205;-74
2023/10/11 03:41:25;;;;;;;3.28;2.65;;;16.20;99.90;;;;;;5077751;28;20217;-73
2023/10/11 03:43:54;;;;;;;4.30;2.70;;;16.30;99.90;;;;;;5082814;28;20228;-74
2023/10/11 03:46:25;;;;;;;4.35;2.50;;;16.30;99.90;;;;;;5079909;28;20206;-74
2023/10/11 03:49:02;;;;;;;4.03;2.13;;;16.30;99.90;;;;;;5080044;28;20197;-75
2023/10/11 03:51:29;;;;;;;4.05;2.53;;;16.20;99.90;;;;;;5076952;28;20202;-74
2023/10/11 03:53:56;;;;;;;4.10;2.42;;;16.20;99.90;;;;;;5080063;28;20553;-74
2023/10/11 03:56:23;;;;;;;2.90;2.30;;;16.20;99.90;;;;;;5078549;28;20608;-76
2023/10/11 03:58:50;;;;;;;3.60;2.35;;;16.20;99.90;;;;;;5079588;28;20205;-75
2023/10/11 04:01:24;;;;;;;2.83;1.80;;;16.20;99.90;;;;;;5076943;28;20610;-75
2023/10/11 04:03:53;;;;;;;4.35;2.80;;;16.20;99.90;;;;;;5083091;28;20732;-75
2023/10/11 04:06:20;;;;;;;3.78;2.45;;;16.20;99.90;;;;;;5085676;28;20199;-74
2023/10/11 04:08:54;;;;;;;3.58;2.53;;;16.20;99.90;;;;;;5087844;28;20285;-74
2023/10/11 04:11:30;;;;;;;3.33;2.38;;;16.10;99.90;;;;;;5100449;28;20194;-73
2023/10/11 04:13:58;;;;;;;4.28;2.40;;;16.10;99.90;;;;;;5108017;28;20208;-75
2023/10/11 04:16:28;;;;;;;5.47;2.80;;;16.20;99.90;;;;;;5109908;28;20193;-75
2023/10/11 04:19:01;;;;;;;3.05;2.55;;;16.20;99.90;;;;;;5097906;28;20201;-73
2023/10/11 04:21:38;;;;;;;3.78;2.40;;;16.10;99.90;;;;;;5079991;28;20308;-74
2023/10/11 04:24:07;;;;;;;4.60;2.70;;;16.10;99.90;;;;;;5078250;28;20202;-74
2023/10/11 04:26:36;;;;;;;4.05;2.70;;;16.10;99.90;;;;;;5082615;28;20236;-74
2023/10/11 04:29:22;;;;;;;5.05;2.20;;;16.00;99.90;;;;;;5084343;28;20212;-74
2023/10/11 04:32:04;;;;;;;5.15;2.83;;;16.00;99.90;;;;;;5080267;28;20269;-74
2023/10/11 04:34:32;;;;;;;3.78;2.65;;;16.00;99.90;;;;;;5080837;28;20247;-74
2023/10/11 04:37:05;;;;;;;4.53;2.60;;;15.90;99.90;;;;;;5080243;28;20192;-74
2023/10/11 04:39:34;;;;;;;3.88;2.80;;;15.90;99.90;;;;;;5082309;28;20216;-74
2023/10/11 04:42:02;;;;;;;3.33;2.40;;;15.90;99.90;;;;;;5080667;28;20234;-75
2023/10/11 04:44:34;;;;;;;5.65;2.80;;;15.90;99.90;;;;;;5086579;28;20224;-74
2023/10/11 04:47:01;;;;;;;3.83;2.53;;;15.90;99.90;;;;;;5078366;28;20229;-74
2023/10/11 04:49:30;;;;;;;5.20;2.70;;;15.80;99.90;;;;;;5084629;28;20251;-75
2023/10/11 04:51:59;;;;;;;4.40;2.90;;;15.80;99.90;;;;;;5083229;28;20247;-74
2023/10/11 04:54:36;;;;;;;3.55;2.58;;;15.80;99.90;;;;;;5084688;28;20209;-74
2023/10/11 04:57:17;;;;;;;4.05;2.40;;;15.80;99.90;;;;;;5083553;28;20204;-75
2023/10/11 04:59:46;;;;;;;4.70;2.80;;;15.80;99.90;;;;;;5085659;28;20307;-73
2023/10/11 05:02:23;;;;;;;3.17;2.67;;;15.80;99.90;;;;;;5086206;28;20681;-74
2023/10/11 05:04:51;;;;;;;4.22;3.10;;;15.80;99.90;;;;;;5090575;28;20250;-74
2023/10/11 05:07:21;;;;;;;4.20;2.63;;;15.70;99.90;;;;;;5098152;28;20226;-76
2023/10/11 05:09:56;;;;;;;5.05;2.45;;;15.70;99.90;;;;;;5093465;28;20789;-75
2023/10/11 05:12:24;;;;;;;6.38;2.70;;;15.70;99.90;;;;;;5085562;28;20649;-74
2023/10/11 05:15:07;;;;;;;3.40;2.72;;;15.70;99.90;;;;;;5087553;28;20205;-75
2023/10/11 05:17:39;;;;;;;5.35;2.47;;;15.70;99.90;;;;;;5093008;28;20199;-75
2023/10/11 05:23:06;;;;;;;4.72;2.97;;;15.90;99.90;;;;;;4990912;28;20227;-76
2023/10/11 05:25:45;;;;;;;6.25;2.85;;;15.90;99.90;;;;;;5055732;28;20286;-77
2023/10/11 05:28:27;;;;;;;3.65;2.25;;;15.90;99.90;;;;;;5079096;28;20197;-74
2023/10/11 05:36:39;;;;;;;3.35;2.50;;;15.90;99.90;;;;;;5076339;28;20232;-74
2023/10/11 05:52:46;;;;;;;3.97;3.08;;;15.90;99.90;;;;;;5075993;28;20208;-74
2023/10/11 05:55:16;;;;;;;7.28;3.80;;;15.90;99.90;;;;;;5067949;28;20198;-74
2023/10/11 05:57:44;;;;;;;7.88;3.72;;;16.00;99.90;;;;;;5077456;28;20348;-76
2023/10/11 06:00:23;;;;;;;6.43;3.17;;;16.10;99.90;;;;;;5080989;28;20226;-75
2023/10/11 06:02:51;;;;;;;4.68;3.22;;;16.10;99.90;;;;;;5078573;28;20882;-75
2023/10/11 06:05:22;;;;;;;4.55;3.50;;;16.00;99.90;;;;;;5077317;28;20583;-75
2023/10/11 06:08:00;;;;;;;5.03;3.20;;;16.10;99.90;;;;;;5074337;28;20631;-74
2023/10/11 06:10:35;;;;;;;6.68;3.28;;;16.00;99.90;;;;;;5072162;28;20239;-75
2023/10/11 06:13:07;;;;;;;13.23;4.65;;;16.10;99.90;;;;;;5075400;28;20568;-74
2023/10/11 06:15:36;;;;;;;14.60;5.70;;;16.40;99.90;;;;;;5077272;28;20194;-74
2023/10/11 06:18:05;;;;;;;11.73;4.25;;;16.60;99.90;;;;;;5080226;28;20199;-74
2023/10/11 06:20:38;;;;;;;8.18;3.97;;;16.80;99.90;;;;;;5085185;28;20245;-75
2023/10/11 06:23:05;;;;;;;12.77;4.05;;;16.90;99.90;;;;;;5079690;28;20338;-74
2023/10/11 06:25:50;;;;;;;5.97;3.17;;;17.00;99.90;;;;;;5077916;28;20206;-75
2023/10/11 06:28:17;;;;;;;5.50;2.78;;;17.10;99.90;;;;;;5077628;28;20206;-75
2023/10/11 06:30:46;;;;;;;4.88;2.72;;;17.00;99.90;;;;;;5075244;28;21002;-72
2023/10/11 06:33:13;;;;;;;4.72;3.00;;;16.80;99.90;;;;;;5080752;28;20194;-72
2023/10/11 06:35:44;;;;;;;7.78;2.90;;;16.30;99.90;;;;;;5076912;28;20283;-73
2023/10/11 06:38:12;;;;;;;4.00;3.00;;;16.10;99.90;;;;;;5076333;28;20930;-73
2023/10/11 06:40:46;;;;;;;5.32;2.83;;;15.80;99.90;;;;;;5083215;28;20228;-73
2023/10/11 06:43:14;;;;;;;4.57;2.80;;;15.70;99.90;;;;;;5081720;28;20761;-71
2023/10/11 06:45:42;;;;;;;6.97;3.50;;;15.60;99.90;;;;;;5083797;28;20896;-72
2023/10/11 06:48:10;;;;;;;5.82;2.85;;;15.80;99.90;;;;;;5076809;28;20205;-73
2023/10/11 06:50:38;;;;;;;4.45;2.90;;;16.50;99.90;;;;;;5082723;28;20448;-73
2023/10/11 06:53:07;;;;;;;3.92;2.65;;;17.10;99.90;;;;;;5080256;28;20194;-73
2023/10/11 06:55:35;;;;;;;4.43;2.63;;;17.70;99.90;;;;;;5078897;28;20254;-73
2023/10/11 06:58:09;;;;;;;5.38;3.05;;;18.40;99.90;;;;;;5083383;28;20941;-74
2023/10/11 07:00:38;;;;;;;4.45;2.40;;;19.00;99.90;;;;;;5079886;28;20232;-72
2023/10/11 07:03:09;;;;;;;7.32;3.25;;;19.50;99.90;;;;;;5075241;28;20300;-73
2023/10/11 07:05:41;;;;;;;7.97;3.30;;;19.90;99.90;;;;;;5076654;28;20240;-72
2023/10/11 07:08:09;;;;;;;5.22;3.22;;;20.10;99.90;;;;;;5086266;28;20177;-73
2023/10/11 07:10:36;;;;;;;4.35;2.70;;;20.50;99.90;;;;;;5097536;28;20533;-72
2023/10/11 07:13:05;;;;;;;6.32;3.13;;;20.70;99.90;;;;;;5081141;28;20194;-73
2023/10/11 07:15:42;;;;;;;5.45;3.40;;;20.90;99.90;;;;;;5077234;28;20271;-71
2023/10/11 07:18:12;;;;;;;8.07;3.40;;;21.10;99.90;;;;;;5081652;28;20327;-72
2023/10/11 07:21:05;;;;;;;8.85;3.75;;;21.20;99.90;;;;;;5077783;28;20244;-71
2023/10/11 07:29:12;;;;;;;8.15;3.63;;;21.20;99.90;;;;;;5094479;28;20196;-72
2023/10/11 07:31:48;;;;;;;4.97;2.90;;;21.50;99.90;;;;;;5079366;28;20207;-71
2023/10/11 07:34:17;;;;;;;6.50;3.20;;;21.50;99.90;;;;;;5070201;28;20804;-71
2023/10/11 07:36:45;;;;;;;6.82;3.70;;;21.40;99.90;;;;;;5075077;28;20285;-70
2023/10/11 07:39:19;;;;;;;8.02;3.75;;;21.60;99.90;;;;;;5105801;28;20227;-72
2023/10/11 07:41:49;;;;;;;7.40;3.47;;;22.00;99.90;;;;;;5101336;28;20197;-77
2023/10/11 07:44:18;;;;;;;7.60;3.63;;;22.10;99.90;;;;;;5099894;28;20193;-71
2023/10/11 07:46:45;;;;;;;8.13;3.70;;;22.10;99.90;;;;;;5072584;28;20201;-72
2023/10/11 07:49:22;;;;;;;9.15;3.72;;;22.20;99.90;;;;;;5072142;28;20202;-72
2023/10/11 07:51:52;;;;;;;7.60;3.53;;;22.30;99.90;;;;;;5069913;28;21711;-72
2023/10/11 07:54:20;;;;;;;6.57;3.28;;;22.50;99.90;;;;;;5074883;28;21269;-71
2023/10/11 07:56:52;;;;;;;4.53;3.42;;;22.80;99.90;;;;;;5074593;28;20205;-72
2023/10/11 07:59:23;;;;;;;8.93;3.55;;;23.10;99.90;;;;;;5074956;28;20218;-71
2023/10/11 08:01:53;;;;;;;9.27;3.28;;;23.30;99.90;;;;;;5070106;28;20206;-72
2023/10/11 08:04:27;;;;;;;5.30;3.28;;;23.40;99.90;;;;;;5070595;28;20206;-72
2023/10/11 08:06:59;;;;;;;8.65;3.97;;;23.50;99.90;;;;;;5072469;28;20193;-71
2023/10/11 08:09:27;;;;;;;9.43;3.40;;;23.60;99.90;;;;;;5074149;28;20353;-71
2023/10/11 08:11:57;;;;;;;7.28;3.40;;;23.80;99.90;;;;;;5077625;28;20254;-72
2023/10/11 08:14:28;;;;;;;7.57;3.60;;;24.00;99.90;;;;;;5070077;28;20202;-71
2023/10/11 08:16:59;;;;;;;7.22;3.58;;;24.30;99.90;;;;;;5075901;28;20202;-72
2023/10/11 08:19:26;;;;;;;9.25;3.63;;;24.40;99.90;;;;;;5076380;28;20851;-70
2023/10/11 08:21:57;;;;;;;7.00;3.42;;;24.50;99.90;;;;;;5077861;28;20250;-73
2023/10/11 08:24:27;;;;;;;7.13;3.28;;;24.50;99.90;;;;;;5072468;28;20722;-73
2023/10/11 08:27:05;;;;;;;8.25;3.72;;;24.60;99.90;;;;;;5073452;28;20189;-71
2023/10/11 08:29:33;;;;;;;8.93;3.90;;;24.70;99.90;;;;;;5071530;28;20217;-71
2023/10/11 08:32:06;;;;;;;7.03;4.18;;;24.70;99.90;;;;;;5077247;28;20242;-72
2023/10/11 08:34:33;;;;;;;9.20;3.33;;;24.60;99.90;;;;;;5078093;28;20318;-72
2023/10/11 08:37:00;;;;;;;7.32;2.95;;;24.50;99.90;;;;;;5069971;28;20324;-73
2023/10/11 08:39:35;;;;;;;9.38;3.88;;;24.50;99.90;;;;;;5060887;28;21179;-72
2023/10/11 08:42:11;;;;;;;8.23;3.28;;;24.60;99.90;;;;;;5060824;28;20329;-71
2023/10/11 08:44:39;;;;;;;8.27;3.40;;;24.60;99.90;;;;;;5061079;28;20829;-71
2023/10/11 08:47:06;;;;;;;8.48;3.28;;;24.80;99.90;;;;;;5062121;28;20565;-73
2023/10/11 08:49:34;;;;;;;7.13;3.50;;;25.00;99.90;;;;;;5058431;28;20218;-70
2023/10/11 08:52:01;;;;;;;8.88;3.55;;;24.80;99.90;;;;;;5064414;28;20244;-71
2023/10/11 08:54:30;;;;;;;9.60;3.95;;;24.80;99.90;;;;;;5056539;28;20411;-73
2023/10/11 08:56:57;;;;;;;7.72;3.67;;;24.80;99.90;;;;;;5052752;28;20230;-72
2023/10/11 08:59:27;;;;;;;6.78;3.55;;;24.80;99.90;;;;;;5057908;28;20224;-72
2023/10/11 09:01:59;;;;;;;6.03;3.72;;;24.70;99.90;;;;;;5065618;28;20656;-73
2023/10/11 09:04:27;;;;;;;6.50;3.50;;;24.50;99.90;;;;;;5057314;28;20203;-72
2023/10/11 09:06:58;;;;;;;6.15;3.15;;;24.30;99.90;;;;;;5057435;28;20260;-72
2023/10/11 09:09:36;;;;;;;7.55;3.45;;;24.50;99.90;;;;;;5058582;28;20254;-74
2023/10/11 09:12:23;;;;;;;7.72;3.45;;;24.60;99.90;;;;;;5083388;28;20201;-73
2023/10/11 09:14:59;;;;;;;8.10;3.50;;;24.70;99.90;;;;;;5055487;28;20209;-72
2023/10/11 09:17:28;;;;;;;6.25;3.33;;;24.90;99.90;;;;;;5059932;28;20206;-74
2023/10/11 09:19:58;;;;;;;6.72;3.67;;;25.00;99.90;;;;;;5053170;28;20223;-72
2023/10/11 09:22:25;;;;;;;7.40;2.97;;;25.30;99.90;;;;;;5058434;28;20201;-70
2023/10/11 09:25:05;;;;;;;7.72;3.65;;;25.50;99.90;;;;;;5056456;28;20210;-72
2023/10/11 09:27:48;;;;;;;7.63;3.85;;;25.50;99.90;;;;;;5058648;28;20854;-73
2023/10/11 09:30:20;;;;;;;7.82;3.35;;;25.40;99.90;;;;;;5055064;28;20778;-73
2023/10/11 09:32:51;;;;;;;7.18;3.53;;;25.50;99.90;;;;;;5065940;28;20194;-72
2023/10/11 09:35:26;;;;;;;7.72;3.63;;;25.50;99.90;;;;;;5065558;28;20206;-73
2023/10/11 09:37:54;;;;;;;6.10;3.10;;;25.60;99.90;;;;;;5056017;28;20228;-73
2023/10/11 09:40:30;;;;;;;7.22;3.50;;;25.70;99.90;;;;;;5055143;28;20321;-72
2023/10/11 09:43:01;;;;;;;9.00;3.95;;;25.90;99.90;;;;;;5059023;28;20205;-73
2023/10/11 09:45:41;;;;;;;8.27;3.50;;;25.90;99.90;;;;;;5058517;28;20305;-73
2023/10/11 09:48:12;;;;;;;7.05;3.40;;;26.00;99.90;;;;;;5056360;28;20724;-74
2023/10/11 09:50:43;;;;;;;7.90;3.22;;;26.00;99.90;;;;;;5064265;28;20209;-72
2023/10/11 09:53:12;;;;;;;6.93;2.75;;;25.90;99.90;;;;;;5054883;28;20303;-72
2023/10/11 09:55:47;;;;;;;7.47;4.25;;;25.80;99.90;;;;;;5059305;28;20254;-73
2023/10/11 09:58:24;;;;;;;6.45;3.40;;;25.70;99.90;;;;;;5062078;28;20213;-71
2023/10/11 10:01:07;;;;;;;9.77;2.92;;;25.50;99.90;;;;;;5057832;28;20217;-71
2023/10/11 10:03:38;;;;;;;7.28;3.15;;;25.60;99.90;;;;;;5063319;28;20202;-72
2023/10/11 10:06:18;;;;;;;10.23;3.92;;;25.80;99.90;;;;;;5052866;28;20222;-72
2023/10/11 10:08:50;;;;;;;5.78;3.22;;;25.90;99.90;;;;;;5053610;28;20206;-72
2023/10/11 10:11:19;;;;;;;10.07;3.60;;;26.20;99.90;;;;;;5058274;28;20785;-73
2023/10/11 10:14:03;;;;;;;6.32;3.22;;;26.40;99.90;;;;;;5059093;28;20206;-74
2023/10/11 10:17:10;;;;;;;9.35;3.35;;;26.60;99.90;;;;;;5056853;28;20454;-73
2023/10/11 10:19:39;;;;;;;7.72;3.35;;;26.80;99.90;;;;;;5060679;28;20222;-73
2023/10/11 10:22:16;;;;;;;9.00;3.38;;;26.70;99.90;;;;;;5055393;28;20281;-73
2023/10/11 10:24:47;;;;;;;9.35;3.25;;;26.70;99.90;;;;;;5054561;28;20211;-73
2023/10/11 10:27:37;;;;;;;12.85;3.47;;;26.60;99.90;;;;;;5059032;28;20260;-73
2023/10/11 10:30:06;;;;;;;10.15;3.80;;;26.60;99.90;;;;;;5053703;28;20214;-74
2023/10/11 10:32:34;;;;;;;6.13;3.30;;;26.60;99.90;;;;;;5055744;28;20221;-72
2023/10/11 10:35:38;;;;;;;7.15;2.75;;;26.40;99.90;;;;;;5054640;28;20279;-73
2023/10/11 10:38:09;;;;;;;7.35;3.30;;;26.50;99.90;;;;;;5052804;28;20244;-73
2023/10/11 10:40:42;;;;;;;9.50;3.58;;;26.60;99.90;;;;;;5055625;28;20235;-72
2023/10/11 10:43:20;;;;;;;7.60;3.03;;;26.50;99.90;;;;;;5058573;28;20206;-73
2023/10/11 10:45:48;;;;;;;6.35;3.15;;;26.20;99.90;;;;;;5055402;28;20214;-72
2023/10/11 10:48:19;;;;;;;7.10;2.95;;;26.00;99.90;;;;;;5057081;28;20290;-73
2023/10/11 10:50:48;;;;;;;7.15;2.88;;;26.10;99.90;;;;;;5050166;28;20363;-73
2023/10/11 10:53:15;;;;;;;7.38;3.38;;;26.20;99.90;;;;;;5055473;28;20206;-73
2023/10/11 10:55:42;;;;;;;7.57;2.95;;;26.20;99.90;;;;;;5055432;28;20665;-73
2023/10/11 10:58:15;;;;;;;5.78;3.30;;;26.00;99.90;;;;;;5057910;28;20566;-72
2023/10/11 11:00:43;;;;;;;5.25;2.80;;;25.90;99.90;;;;;;5055869;28;20229;-72
2023/10/11 11:03:23;;;;;;;6.82;3.63;;;25.90;99.90;;;;;;5059535;28;20257;-71
2023/10/11 11:05:55;;;;;;;5.72;3.47;;;25.80;99.90;;;;;;5055881;28;20677;-71
2023/10/11 11:08:27;;;;;;;7.45;3.90;;;25.90;99.90;;;;;;5056969;28;20285;-72
2023/10/11 11:11:00;;;;;;;8.50;3.47;;;25.80;99.90;;;;;;5064437;28;21521;-73
2023/10/11 11:13:30;;;;;;;6.75;3.10;;;25.80;99.90;;;;;;5090476;28;20194;-74
2023/10/11 11:15:56;;;;;;;9.63;3.60;;;25.70;99.90;;;;;;5085214;28;20239;-74
2023/10/11 11:18:34;;;;;;;6.90;3.42;;;25.90;99.90;;;;;;5080925;28;20202;-74
2023/10/11 11:21:17;;;;;;;7.38;3.05;;;26.00;99.90;;;;;;5058196;28;20209;-73
2023/10/11 11:23:45;;;;;;;6.18;3.25;;;26.20;99.90;;;;;;5055525;28;20321;-72
2023/10/11 11:26:15;;;;;;;5.90;2.80;;;26.50;99.90;;;;;;5056505;28;20727;-74
2023/10/11 11:28:46;;;;;;;5.90;3.20;;;26.40;99.90;;;;;;5058538;28;20206;-74
2023/10/11 11:31:30;;;;;;;6.60;2.95;;;26.30;99.90;;;;;;5054061;28;20275;-73
2023/10/11 11:34:13;;;;;;;9.23;3.15;;;26.20;99.90;;;;;;5056510;28;20762;-72
2023/10/11 11:36:40;;;;;;;5.20;3.10;;;26.30;99.90;;;;;;5052028;28;20199;-72
2023/10/11 11:39:26;;;;;;;6.40;3.58;;;26.40;99.90;;;;;;5057474;28;20220;-72
2023/10/11 11:41:52;;;;;;;6.65;3.72;;;26.50;99.90;;;;;;5055046;28;20194;-72
2023/10/11 11:44:21;;;;;;;6.43;2.63;;;26.40;99.90;;;;;;5055858;28;20209;-74
2023/10/11 11:46:51;;;;;;;6.97;3.35;;;26.40;99.90;;;;;;5051782;28;20264;-73
2023/10/11 11:49:22;;;;;;;7.97;3.28;;;26.30;99.90;;;;;;5055713;28;20213;-74
2023/10/11 11:51:51;;;;;;;9.55;3.33;;;26.40;99.90;;;;;;5056883;28;20190;-74
2023/10/11 11:54:21;;;;;;;11.70;3.72;;;26.50;99.90;;;;;;5057824;28;20191;-72
2023/10/11 11:56:48;;;;;;;21.15;4.65;;;26.60;99.90;;;;;;5056892;28;20190;-73
2023/10/11 11:59:21;;;;;;;8.50;3.15;;;26.50;99.90;;;;;;5054936;28;20206;-71
2023/10/11 12:01:53;;;;;;;9.50;3.47;;;26.40;99.90;;;;;;5055515;28;20207;-72
2023/10/11 12:04:29;;;;;;;8.50;3.45;;;26.30;99.90;;;;;;5054643;28;20215;-72
2023/10/11 12:06:57;;;;;;;8.27;3.20;;;26.20;99.90;;;;;;5052369;28;20263;-72
2023/10/11 12:09:31;;;;;;;10.82;3.80;;;26.40;99.90;;;;;;5055395;28;20268;-72
2023/10/11 12:12:02;;;;;;;10.82;3.85;;;26.50;99.90;;;;;;5054968;28;20297;-73
2023/10/11 12:14:29;;;;;;;9.20;3.30;;;26.60;99.90;;;;;;5056108;28;20202;-73
2023/10/11 12:16:56;;;;;;;8.85;3.47;;;26.50;99.90;;;;;;5053549;28;20838;-74
2023/10/11 12:19:28;;;;;;;6.80;3.45;;;26.50;99.90;;;;;;5059369;28;20226;-73
2023/10/11 12:21:59;;;;;;;5.80;3.35;;;26.50;99.90;;;;;;5058115;28;20324;-72
2023/10/11 12:24:26;;;;;;;5.93;3.10;;;26.50;99.90;;;;;;5061351;28;20210;-75
2023/10/11 12:26:57;;;;;;;8.65;3.78;;;26.60;99.90;;;;;;5059352;28;20242;-74
2023/10/11 12:29:26;;;;;;;12.68;3.90;;;26.70;99.90;;;;;;5057019;28;20224;-72
2023/10/11 12:31:53;;;;;;;7.53;3.05;;;26.60;99.90;;;;;;5055454;28;20213;-74
2023/10/11 12:34:24;;;;;;;6.93;3.15;;;26.70;99.90;;;;;;5057599;28;20260;-76
2023/10/11 12:36:53;;;;;;;7.88;3.60;;;26.70;99.90;;;;;;5057555;28;20684;-73
2023/10/11 12:39:23;;;;;;;6.80;3.20;;;26.80;99.90;;;;;;5056890;28;20220;-71
2023/10/11 12:41:53;;;;;;;7.68;3.30;;;26.90;99.90;;;;;;5053767;28;20202;-71
2023/10/11 12:44:21;;;;;;;6.22;2.70;;;26.90;99.90;;;;;;5057084;28;20214;-72
2023/10/11 12:46:49;;;;;;;8.73;2.70;;;26.70;99.90;;;;;;5051473;28;20210;-71
2023/10/11 12:49:16;;;;;;;6.93;2.72;;;26.50;99.90;;;;;;5059782;28;20206;-70
2023/10/11 12:51:45;;;;;;;8.38;3.50;;;26.50;99.90;;;;;;5056808;28;20194;-73
2023/10/11 12:54:14;;;;;;;7.90;3.03;;;26.30;99.90;;;;;;5058760;28;20285;-71
2023/10/11 12:56:42;;;;;;;4.32;2.53;;;26.40;99.90;;;;;;5054306;28;20293;-71
2023/10/11 12:59:12;;;;;;;4.70;2.75;;;26.40;99.90;;;;;;5055334;28;20210;-71
2023/10/11 13:01:42;;;;;;;7.05;3.10;;;26.30;99.90;;;;;;5055682;28;20198;-72
2023/10/11 13:04:17;;;;;;;6.88;2.88;;;26.20;99.90;;;;;;5063833;28;20214;-72
2023/10/11 13:06:49;;;;;;;5.57;3.08;;;26.00;99.90;;;;;;5059868;28;20213;-71
2023/10/11 13:09:21;;;;;;;6.18;2.55;;;26.00;99.90;;;;;;5059557;28;20294;-73
2023/10/11 13:11:48;;;;;;;4.82;2.70;;;26.00;99.90;;;;;;5055677;28;20788;-71
2023/10/11 13:14:18;;;;;;;5.38;2.67;;;26.20;99.90;;;;;;5073792;28;20260;-71
2023/10/11 13:16:47;;;;;;;5.07;2.45;;;26.30;99.90;;;;;;5072654;28;20198;-72
2023/10/11 13:19:17;;;;;;;5.35;2.53;;;26.40;99.90;;;;;;5060484;28;20209;-71
2023/10/11 13:21:47;;;;;;;8.23;2.45;;;26.30;99.90;;;;;;5056913;28;20206;-71
2023/10/11 13:24:16;;;;;;;8.45;2.90;;;26.20;99.90;;;;;;5051683;28;20319;-71
2023/10/11 13:26:44;;;;;;;6.90;3.10;;;26.20;99.90;;;;;;5053782;28;22389;-72
2023/10/11 13:29:16;;;;;;;3.83;2.72;;;26.20;99.90;;;;;;5061882;28;20271;-71
2023/10/11 13:31:46;;;;;;;7.30;3.17;;;26.10;99.90;;;;;;5058276;28;20205;-72
2023/10/11 13:34:14;;;;;;;5.78;2.85;;;26.00;99.90;;;;;;5055713;28;20206;-73